Time;durP1;ratioP1;P1;durP2;ratioP2;P2;SDS_P1;SDS_P2;PMS_P1;PMS_P2;Temp;Humidity;BMP_temperature;BMP_pressure;BME280_temperature;BME280_humidity;BME280_pressure;Samples;Min_cycle;Max_cycle;Signal;HPM_P1;HPM_P2
2022/06/27 00:00:58;;;;;;;9.65;6.70;;;;;;;18.92;79.11;99531.59;5024515;28;20086;-95
2022/06/27 00:03:23;;;;;;;10.85;6.93;;;;;;;18.90;79.48;99520.19;5024079;28;20036;-94
2022/06/27 00:05:49;;;;;;;9.63;6.80;;;;;;;19.04;79.24;99552.81;5025467;28;20033;-93
2022/06/27 00:08:14;;;;;;;12.35;6.95;;;;;;;18.90;78.67;99549.41;5024726;28;20028;-94
2022/06/27 00:10:40;;;;;;;14.63;7.32;;;;;;;18.85;78.95;99558.56;5024976;28;20406;-94
2022/06/27 00:13:05;;;;;;;10.88;7.68;;;;;;;18.81;78.81;99562.25;5024385;28;20025;-95
2022/06/27 00:15:31;;;;;;;10.10;7.32;;;;;;;18.78;78.62;99563.69;5024214;28;20032;-94
2022/06/27 00:17:57;;;;;;;10.63;6.93;;;;;;;18.82;78.84;99567.38;5024993;28;20386;-93
2022/06/27 00:20:24;;;;;;;10.82;6.78;;;;;;;18.73;78.93;99556.41;5024579;28;20025;-95
2022/06/27 00:22:50;;;;;;;9.35;7.00;;;;;;;18.67;79.83;99565.88;5024825;28;20021;-95
2022/06/27 00:25:16;;;;;;;12.68;8.48;;;;;;;18.53;79.86;99552.38;5024516;28;20459;-94
2022/06/27 00:27:41;;;;;;;11.05;7.78;;;;;;;18.56;79.48;99545.50;5024065;28;20024;-94
2022/06/27 00:30:07;;;;;;;13.30;8.20;;;;;;;18.57;79.34;99544.34;5024330;28;20032;-94
2022/06/27 00:32:33;;;;;;;14.07;8.38;;;;;;;18.58;79.02;99549.50;5040943;28;20116;-94
2022/06/27 00:34:58;;;;;;;11.38;7.43;;;;;;;18.55;79.42;99550.16;5023758;28;20402;-94
2022/06/27 00:37:24;;;;;;;12.85;7.35;;;;;;;18.45;79.56;99546.88;5023944;28;20024;-93
2022/06/27 00:39:50;;;;;;;9.82;7.13;;;;;;;18.56;79.38;99551.75;5024260;28;20048;-94
2022/06/27 00:42:15;;;;;;;11.68;7.32;;;;;;;18.51;79.69;99540.16;5040782;28;20021;-94
2022/06/27 00:44:42;;;;;;;10.27;7.20;;;;;;;18.50;79.44;99542.09;5024295;28;20021;-94
2022/06/27 00:47:09;;;;;;;12.63;7.70;;;;;;;18.51;79.81;99534.72;5024045;28;20020;-94
2022/06/27 00:49:35;;;;;;;12.50;7.93;;;;;;;18.59;79.67;99550.28;5024202;28;20048;-94
2022/06/27 00:52:05;;;;;;;12.30;7.78;;;;;;;18.56;79.65;99556.41;5040149;28;20032;-94
2022/06/27 00:54:31;;;;;;;9.93;7.65;;;;;;;18.59;79.62;99569.38;5024003;28;20025;-94
2022/06/27 00:56:57;;;;;;;13.65;7.68;;;;;;;18.51;79.45;99551.06;5023828;28;20085;-95
2022/06/27 00:59:22;;;;;;;11.23;7.22;;;;;;;18.53;79.51;99551.56;5023974;28;20028;-94
2022/06/27 01:01:48;;;;;;;12.85;8.18;;;;;;;18.38;79.41;99537.25;5023654;28;20059;-94
2022/06/27 01:04:14;;;;;;;11.18;8.00;;;;;;;18.42;79.89;99548.34;5023629;28;20562;-93
2022/06/27 01:06:39;;;;;;;11.70;7.85;;;;;;;18.46;79.52;99549.31;5023502;28;20063;-95
2022/06/27 01:09:05;;;;;;;11.20;8.43;;;;;;;18.44;79.37;99556.19;5023756;28;20028;-94
2022/06/27 01:11:31;;;;;;;9.18;7.28;;;;;;;18.42;79.40;99551.06;5023639;28;20036;-94
2022/06/27 01:13:56;;;;;;;13.13;8.55;;;;;;;18.43;79.39;99560.03;5022879;28;20029;-93
2022/06/27 01:16:23;;;;;;;14.13;7.53;;;;;;;18.37;79.37;99545.75;5038911;28;20025;-94
2022/06/27 01:18:48;;;;;;;9.75;7.45;;;;;;;18.44;79.18;99562.44;5023507;28;20032;-94
2022/06/27 01:21:20;;;;;;;9.35;7.32;;;;;;;18.45;79.14;99568.69;5023303;28;20035;-95
2022/06/27 01:23:46;;;;;;;12.13;7.80;;;;;;;18.35;79.16;99556.97;5023409;28;20082;-93
2022/06/27 01:26:12;;;;;;;13.10;7.60;;;;;;;18.29;79.53;99557.44;5023175;28;20032;-94
2022/06/27 01:28:37;;;;;;;9.73;8.00;;;;;;;18.35;78.92;99554.25;5039209;28;20123;-94
2022/06/27 01:31:03;;;;;;;12.15;7.93;;;;;;;18.32;78.63;99552.16;5023400;28;20536;-95
2022/06/27 01:33:28;;;;;;;11.02;8.07;;;;;;;18.32;78.91;99557.63;5023184;28;20032;-94
2022/06/27 01:36:41;;;;;;;10.40;8.48;;;;;;;18.36;78.77;99550.41;5039479;28;20557;-94
2022/06/27 01:38:39;;;;;;;11.48;7.70;;;;;;;18.42;78.18;99556.50;5045232;28;20032;-95
2022/06/27 01:41:08;;;;;;;10.82;8.02;;;;;;;18.47;78.23;99553.66;5022793;28;20074;-94
2022/06/27 01:43:34;;;;;;;12.52;8.75;;;;;;;18.54;78.43;99564.09;5022960;28;20492;-94
2022/06/27 01:46:00;;;;;;;13.38;9.13;;;;;;;18.52;78.21;99561.69;5039421;28;20052;-95
2022/06/27 01:48:26;;;;;;;12.57;8.02;;;;;;;18.64;77.76;99565.72;5039102;28;20414;-94
2022/06/27 01:50:51;;;;;;;11.50;8.60;;;;;;;18.69;78.03;99571.81;5023171;28;20028;-94
2022/06/27 01:53:17;;;;;;;11.45;8.02;;;;;;;18.64;78.30;99568.47;5022721;28;20024;-93
2022/06/27 01:55:43;;;;;;;13.13;8.38;;;;;;;18.67;77.95;99573.25;5038982;28;20031;-93
2022/06/27 01:58:09;;;;;;;12.50;7.93;;;;;;;18.54;78.36;99551.25;5039168;28;20082;-93
2022/06/27 02:00:35;;;;;;;11.15;8.07;;;;;;;18.54;78.13;99567.63;5022937;28;20046;-93
2022/06/27 02:03:00;;;;;;;12.15;7.63;;;;;;;18.56;77.58;99579.00;5022563;28;20421;-94
2022/06/27 02:05:26;;;;;;;12.45;7.97;;;;;;;18.51;77.71;99578.34;5022932;28;20024;-93
2022/06/27 02:07:51;;;;;;;9.25;7.15;;;;;;;18.41;77.09;99579.47;5022767;28;20020;-94
2022/06/27 02:10:17;;;;;;;10.13;6.93;;;;;;;18.38;77.45;99582.78;5022801;28;20078;-95
2022/06/27 02:12:42;;;;;;;12.00;7.18;;;;;;;18.45;77.17;99579.59;5022392;28;20553;-94
2022/06/27 02:15:09;;;;;;;11.48;7.35;;;;;;;18.33;77.44;99569.31;5022589;28;20017;-93
2022/06/27 02:17:34;;;;;;;9.20;7.70;;;;;;;18.46;76.91;99576.56;5023452;28;20017;-95
2022/06/27 02:20:00;;;;;;;9.30;6.93;;;;;;;18.46;76.81;99571.13;5022191;28;20028;-96
2022/06/27 02:22:26;;;;;;;9.88;7.22;;;;;;;18.52;77.08;99571.78;5022397;28;20482;-94
2022/06/27 02:24:51;;;;;;;12.50;7.22;;;;;;;18.58;77.12;99592.34;5022252;28;20020;-94
2022/06/27 02:27:16;;;;;;;12.70;7.32;;;;;;;18.44;77.19;99578.00;5025857;28;20024;-95
2022/06/27 02:29:42;;;;;;;14.82;7.72;;;;;;;18.45;77.33;99571.44;5026616;28;20021;-95
2022/06/27 02:32:08;;;;;;;12.45;7.47;;;;;;;18.32;77.35;99565.81;5026949;28;20024;-93
2022/06/27 02:34:35;;;;;;;12.38;7.63;;;;;;;18.31;77.41;99577.81;5042964;28;20031;-94
2022/06/27 02:37:00;;;;;;;12.43;7.50;;;;;;;18.25;77.56;99575.53;5043708;28;20020;-94
2022/06/27 02:39:26;;;;;;;15.73;7.93;;;;;;;18.15;77.71;99573.88;5026520;28;20115;-94
2022/06/27 02:41:54;;;;;;;10.40;7.25;;;;;;;18.08;77.67;99587.97;5026226;28;20028;-94
2022/06/27 02:44:20;;;;;;;11.05;7.82;;;;;;;18.07;77.83;99591.81;5026432;28;20043;-94
2022/06/27 02:46:45;;;;;;;14.90;7.95;;;;;;;17.96;77.74;99574.13;5026257;28;20116;-94
2022/06/27 02:49:11;;;;;;;11.30;7.88;;;;;;;17.99;78.29;99592.56;5042190;28;20562;-95
2022/06/27 02:51:48;;;;;;;10.48;8.35;;;;;;;17.88;79.02;99599.41;5026183;28;20035;-95
2022/06/27 02:54:20;;;;;;;13.60;7.70;;;;;;;17.76;78.87;99569.97;5042601;28;20060;-94
2022/06/27 02:56:55;;;;;;;10.65;7.35;;;;;;;17.94;78.39;99579.88;5026205;28;20043;-94
2022/06/27 02:59:24;;;;;;;10.02;7.53;;;;;;;17.95;78.02;99570.59;5042355;28;20078;-93
2022/06/27 03:01:49;;;;;;;12.05;6.95;;;;;;;17.87;78.57;99574.09;5026108;28;20115;-96
2022/06/27 03:04:15;;;;;;;11.65;7.57;;;;;;;17.81;79.30;99580.75;5025568;28;20115;-94
2022/06/27 03:06:40;;;;;;;12.15;8.57;;;;;;;17.72;79.12;99567.09;5025419;28;20028;-94
2022/06/27 03:09:07;;;;;;;11.63;8.52;;;;;;;17.69;79.42;99583.22;5025911;28;20117;-94
2022/06/27 03:11:33;;;;;;;12.32;8.07;;;;;;;17.68;79.18;99574.25;5025796;28;20028;-94
2022/06/27 03:13:58;;;;;;;9.38;7.47;;;;;;;17.81;78.68;99597.09;5025532;28;20036;-95
2022/06/27 03:16:24;;;;;;;11.00;8.15;;;;;;;17.73;79.52;99592.38;5025075;28;20481;-95
2022/06/27 03:18:49;;;;;;;13.50;8.43;;;;;;;17.68;78.90;99584.31;5025337;28;20031;-95
2022/06/27 03:21:17;;;;;;;13.00;8.25;;;;;;;17.64;78.94;99588.78;5025815;28;20028;-94
2022/06/27 03:23:47;;;;;;;10.90;8.75;;;;;;;17.69;79.08;99591.41;5026244;28;20016;-94
2022/06/27 03:26:12;;;;;;;10.57;8.35;;;;;;;17.58;79.26;99583.47;5026192;28;20024;-94
2022/06/27 03:28:38;;;;;;;14.80;9.13;;;;;;;17.59;79.60;99595.16;5025034;28;20036;-93
2022/06/27 03:31:04;;;;;;;11.65;8.35;;;;;;;17.60;79.41;99585.91;5041639;28;20081;-94
2022/06/27 03:33:29;;;;;;;13.18;8.23;;;;;;;17.67;79.28;99591.69;5025770;28;20490;-93
2022/06/27 03:35:55;;;;;;;13.35;8.43;;;;;;;17.72;79.03;99590.75;5025323;28;20027;-95
2022/06/27 03:38:20;;;;;;;16.05;8.95;;;;;;;17.68;79.37;99584.31;5025198;28;20096;-94
2022/06/27 03:40:58;;;;;;;18.30;9.23;;;;;;;17.83;78.72;99608.50;5026098;28;20028;-95
2022/06/27 03:43:23;;;;;;;11.68;8.52;;;;;;;17.72;78.79;99582.59;5041529;28;20056;-95
2022/06/27 03:45:49;;;;;;;15.68;9.57;;;;;;;17.84;78.60;99598.41;5025370;28;20055;-94
2022/06/27 03:50:00;;;;;;;17.15;11.70;;;;;;;17.69;79.06;99578.59;5027129;28;20085;-96
2022/06/27 03:50:59;;;;;;;16.83;11.35;;;;;;;17.58;79.75;99591.66;5046936;28;20426;-93
2022/06/27 03:53:25;;;;;;;16.08;11.18;;;;;;;17.63;80.31;99611.69;5041311;28;20032;-95
2022/06/27 03:55:50;;;;;;;16.05;10.55;;;;;;;17.57;79.56;99590.03;5026459;28;20174;-93
2022/06/27 03:58:16;;;;;;;17.20;12.20;;;;;;;17.52;79.73;99581.19;5041320;28;20024;-93
2022/06/27 04:00:42;;;;;;;19.92;12.32;;;;;;;17.73;79.21;99595.13;5025601;28;20021;-93
2022/06/27 04:03:07;;;;;;;26.25;13.85;;;;;;;17.88;78.57;99602.91;5025162;28;20409;-93
2022/06/27 04:05:33;;;;;;;17.05;11.27;;;;;;;17.86;78.95;99604.34;5042064;28;20025;-94
2022/06/27 04:07:58;;;;;;;23.83;14.00;;;;;;;17.73;79.53;99592.38;5042472;28;20029;-95
2022/06/27 04:10:24;;;;;;;13.82;10.88;;;;;;;17.74;79.43;99608.44;5024658;28;20024;-94
2022/06/27 04:12:49;;;;;;;22.00;11.48;;;;;;;17.78;79.49;99600.41;5041509;28;20044;-90
2022/06/27 04:15:15;;;;;;;18.13;12.45;;;;;;;17.87;78.73;99601.31;5042087;28;20029;-93
2022/06/27 04:17:40;;;;;;;25.48;14.60;;;;;;;17.96;78.50;99604.09;5028443;28;20175;-94
2022/06/27 04:20:06;;;;;;;25.83;15.57;;;;;;;18.16;78.26;99619.13;5028934;28;20039;-91
2022/06/27 04:22:33;;;;;;;25.55;15.00;;;;;;;18.06;78.03;99597.59;5030391;28;20022;-92
2022/06/27 04:24:59;;;;;;;23.42;15.68;;;;;;;18.16;77.69;99619.13;5040808;28;20016;-93
2022/06/27 04:27:25;;;;;;;27.92;17.83;;;;;;;18.27;78.13;99622.38;5030943;28;20031;-93
2022/06/27 04:29:52;;;;;;;26.08;16.45;;;;;;;18.23;77.92;99614.00;5045953;28;20017;-94
2022/06/27 04:32:18;;;;;;;19.23;14.25;;;;;;;18.26;77.50;99610.66;5046958;28;20035;-93
2022/06/27 04:34:44;;;;;;;19.70;13.85;;;;;;;18.46;77.26;99628.38;5029698;28;20064;-93
2022/06/27 04:37:10;;;;;;;24.95;13.88;;;;;;;18.44;76.23;99606.06;5028417;28;20029;-95
2022/06/27 04:39:36;;;;;;;20.23;12.00;;;;;;;18.56;76.25;99613.66;5045047;28;20089;-94
2022/06/27 04:42:06;;;;;;;18.33;12.38;;;;;;;18.68;75.50;99619.31;5045781;28;20115;-92
2022/06/27 04:44:33;;;;;;;16.98;12.02;;;;;;;18.69;76.47;99617.38;5026853;28;20016;-92
2022/06/27 04:46:58;;;;;;;23.67;13.95;;;;;;;18.68;76.00;99626.72;5042780;28;20074;-96
2022/06/27 04:49:25;;;;;;;16.10;11.52;;;;;;;18.63;75.91;99607.75;5058983;28;20082;-95
2022/06/27 04:51:50;;;;;;;16.95;10.80;;;;;;;18.65;75.80;99611.75;5043834;28;20395;-92
2022/06/27 04:54:22;;;;;;;17.02;12.98;;;;;;;18.73;75.91;99610.97;5025608;28;20020;-93
2022/06/27 04:56:50;;;;;;;17.33;9.02;;;;;;;18.90;74.70;99612.97;5026593;28;20024;-93
2022/06/27 04:59:16;;;;;;;14.93;11.13;;;;;;;19.05;75.42;99619.09;5026742;28;20036;-94
2022/06/27 05:01:42;;;;;;;15.45;10.38;;;;;;;19.10;74.51;99619.75;5049823;28;20027;-91
2022/06/27 05:04:10;;;;;;;13.95;9.10;;;;;;;19.11;74.46;99613.19;5027813;28;20048;-91
2022/06/27 05:06:48;;;;;;;17.23;9.32;;;;;;;19.12;74.89;99603.88;5031662;28;20021;-94
2022/06/27 05:09:16;;;;;;;15.38;9.02;;;;;;;19.25;74.45;99618.47;5072511;28;20032;-91
2022/06/27 05:18:15;;;;;;;18.33;8.10;;;;;;;19.54;73.85;99623.28;5037792;28;20043;-93
2022/06/27 05:21:25;;;;;;;11.65;6.57;;;;;;;19.59;72.62;99606.75;4995400;28;20037;-96
2022/06/27 05:23:51;;;;;;;11.38;5.70;;;;;;;19.82;71.98;99623.00;4992890;28;20044;-89
2022/06/27 05:27:10;;;;;;;;;;;;;;;;;;;;;
2022/06/27 05:29:43;;;;;;;7.13;5.80;;;;;;;19.97;71.50;99624.41;5023543;28;20030;-94
2022/06/27 05:32:11;;;;;;;15.05;6.10;;;;;;;20.09;70.94;99624.53;5019805;28;20479;-95
2022/06/27 05:34:37;;;;;;;12.68;6.50;;;;;;;20.31;70.06;99634.44;4984087;28;20515;-95
2022/06/27 05:37:04;;;;;;;7.72;5.97;;;;;;;20.39;69.25;99628.13;4965325;28;20022;-95
2022/06/27 05:39:30;;;;;;;14.95;6.57;;;;;;;20.28;69.75;99617.91;4981830;28;20030;-93
2022/06/27 05:41:56;;;;;;;12.77;7.07;;;;;;;20.61;68.91;99641.91;4983147;28;20088;-94
2022/06/27 05:44:23;;;;;;;12.30;7.50;;;;;;;20.45;69.49;99619.75;4981325;28;20451;-94
2022/06/27 05:46:49;;;;;;;16.58;10.85;;;;;;;20.58;69.05;99622.28;4996484;28;20030;-92
2022/06/27 05:49:17;;;;;;;12.93;6.78;;;;;;;20.69;68.50;99632.84;4983066;28;20061;-94
2022/06/27 05:51:46;;;;;;;13.15;6.40;;;;;;;20.93;67.64;99654.16;5001440;28;20440;-92
2022/06/27 05:54:12;;;;;;;11.10;6.57;;;;;;;20.87;67.50;99642.56;4999100;28;20101;-94
2022/06/27 05:56:39;;;;;;;11.93;6.25;;;;;;;21.13;67.04;99647.13;4983727;28;20052;-96
2022/06/27 05:59:06;;;;;;;7.88;5.72;;;;;;;21.18;66.92;99647.69;5017953;28;20040;-92
2022/06/27 06:01:32;;;;;;;12.10;7.60;;;;;;;21.34;67.52;99647.13;5021393;28;20040;-92
2022/06/27 06:04:00;;;;;;;10.15;6.15;;;;;;;21.42;66.88;99639.97;5024716;28;20033;-92
2022/06/27 06:06:28;;;;;;;11.32;5.57;;;;;;;21.67;66.11;99658.16;5022003;28;20553;-91
2022/06/27 06:08:57;;;;;;;7.90;3.83;;;;;;;21.66;65.24;99645.59;5012597;28;20469;-96
2022/06/27 06:11:23;;;;;;;5.18;3.30;;;;;;;21.85;63.59;99644.28;5012159;28;20028;-91
2022/06/27 06:13:50;;;;;;;7.65;5.45;;;;;;;21.94;64.06;99648.56;5035439;28;20111;-95
2022/06/27 06:16:19;;;;;;;4.50;3.38;;;;;;;22.02;64.21;99652.38;5025287;28;20035;-95
2022/06/27 06:18:47;;;;;;;7.22;4.20;;;;;;;21.87;64.67;99644.75;5012249;28;20486;-91
2022/06/27 06:21:13;;;;;;;8.35;4.10;;;;;;;21.97;64.21;99633.38;5040160;28;20489;-90
2022/06/27 06:23:39;;;;;;;6.72;4.38;;;;;;;22.13;63.51;99652.72;5027079;28;20028;-95
2022/06/27 06:26:42;;;;;;;6.55;3.78;;;;;;;22.34;63.62;99671.88;5025410;28;20037;-93
2022/06/27 06:29:18;;;;;;;12.32;4.60;;;;;;;22.39;63.86;99677.97;5020580;28;20048;-95
2022/06/27 06:31:44;;;;;;;6.03;4.03;;;;;;;22.46;62.98;99662.88;5011671;28;20037;-94
2022/06/27 06:34:34;;;;;;;11.13;4.90;;;;;;;22.64;62.40;99663.44;5014360;28;20129;-96
2022/06/27 06:37:09;;;;;;;5.30;4.28;;;;;;;22.87;61.15;99661.88;5009641;28;20033;-93
2022/06/27 06:40:09;;;;;;;8.20;5.38;;;;;;;22.77;61.08;99654.88;5015070;28;20463;-94
2022/06/27 06:42:40;;;;;;;6.60;3.45;;;;;;;22.82;60.66;99694.25;4998283;28;20056;-94
2022/06/27 06:45:07;;;;;;;7.78;4.93;;;;;;;22.72;61.67;99668.03;5024145;28;20036;-91
2022/06/27 06:47:42;;;;;;;10.68;6.00;;;;;;;22.63;61.38;99661.88;5005752;28;20033;-89
2022/06/27 06:50:10;;;;;;;11.63;4.75;;;;;;;22.73;60.75;99666.91;5002567;28;20081;-90
2022/06/27 06:52:39;;;;;;;8.57;3.85;;;;;;;22.90;60.64;99685.09;5004746;28;20036;-92
2022/06/27 06:55:06;;;;;;;6.03;4.00;;;;;;;22.89;60.64;99661.50;5038602;28;20033;-95
2022/06/27 06:57:34;;;;;;;8.23;4.47;;;;;;;22.90;60.71;99671.38;5026182;28;20453;-91
2022/06/27 07:00:02;;;;;;;6.68;4.63;;;;;;;22.79;62.41;99679.25;5006020;28;20033;-90
2022/06/27 07:02:27;;;;;;;8.20;5.07;;;;;;;22.89;61.87;99667.81;5039083;28;20028;-95
2022/06/27 07:04:53;;;;;;;8.23;4.00;;;;;;;23.01;61.27;99680.75;5005397;28;20025;-94
2022/06/27 07:07:20;;;;;;;7.93;4.20;;;;;;;22.97;60.78;99672.41;5004223;28;20036;-93
2022/06/27 07:09:46;;;;;;;4.60;4.05;;;;;;;22.92;60.98;99666.31;5005784;28;20482;-94
2022/06/27 07:12:13;;;;;;;64.15;53.20;;;;;;;22.86;61.32;99668.50;5005523;28;20040;-93
2022/06/27 07:14:39;;;;;;;14.40;5.50;;;;;;;22.93;61.27;99690.72;5008274;28;20060;-94
2022/06/27 07:17:05;;;;;;;14.15;6.20;;;;;;;22.93;61.20;99678.91;5009683;28;20186;-92
2022/06/27 07:19:30;;;;;;;13.15;5.22;;;;;;;23.00;60.97;99657.97;5008583;28;20044;-92
2022/06/27 07:21:56;;;;;;;15.55;5.57;;;;;;;23.19;60.41;99682.13;5007243;28;20025;-91
2022/06/27 07:24:22;;;;;;;8.20;5.45;;;;;;;23.21;60.61;99670.78;5023701;28;20033;-91
2022/06/27 07:26:47;;;;;;;9.93;6.43;;;;;;;23.16;59.88;99658.09;5024516;28;20027;-91
2022/06/27 07:29:13;;;;;;;8.48;5.60;;;;;;;23.28;59.51;99671.00;5032429;28;20020;-96
2022/06/27 07:31:39;;;;;;;7.93;5.18;;;;;;;23.36;59.12;99658.28;5030122;28;20581;-94
2022/06/27 07:34:08;;;;;;;13.32;5.95;;;;;;;23.50;59.32;99666.94;5024636;28;20029;-93
2022/06/27 07:36:34;;;;;;;10.68;6.30;;;;;;;23.54;59.58;99673.34;5024899;28;20029;-94
2022/06/27 07:39:00;;;;;;;10.05;6.07;;;;;;;23.65;57.75;99673.66;5023535;28;20029;-91
2022/06/27 07:41:30;;;;;;;11.75;6.72;;;;;;;23.73;58.20;99672.69;5022535;28;20035;-92
2022/06/27 07:43:56;;;;;;;12.88;6.35;;;;;;;23.51;56.59;99664.97;5024091;28;20500;-93
2022/06/27 07:46:21;;;;;;;12.98;6.97;;;;;;;23.72;56.73;99671.13;5040316;28;20032;-93
2022/06/27 07:48:47;;;;;;;12.05;6.07;;;;;;;23.80;57.03;99663.88;5043734;28;20082;-92
2022/06/27 07:51:16;;;;;;;10.50;5.47;;;;;;;23.94;55.20;99666.22;5045416;28;20462;-91
2022/06/27 07:53:47;;;;;;;9.05;6.07;;;;;;;24.05;55.56;99661.84;5026272;28;20035;-94
2022/06/27 07:56:14;;;;;;;6.67;5.93;;;;;;;24.03;55.67;99646.81;5029575;28;20051;-95
2022/06/27 07:58:42;;;;;;;8.57;6.03;;;;;;;24.34;54.94;99666.13;5027806;28;20120;-93
2022/06/27 08:01:19;;;;;;;9.75;6.50;;;;;;;24.35;54.43;99648.44;5115986;22;20032;-95
2022/06/27 08:03:47;;;;;;;7.55;5.72;;;;;;;24.40;54.04;99645.44;4995592;28;20046;-93
2022/06/27 08:06:20;;;;;;;12.23;9.45;;;;;;;24.59;54.27;99658.53;5002001;28;20034;-95
2022/06/27 08:08:54;;;;;;;12.35;5.80;;;;;;;24.71;53.67;99660.38;4991061;28;20428;-92
2022/06/27 08:11:30;;;;;;;7.78;6.72;;;;;;;24.76;53.70;99656.56;5001043;28;20033;-92
2022/06/27 08:20:48;;;;;;;7.30;5.32;;;;;;;24.69;52.20;99662.69;4948311;29;20094;-94
2022/06/27 08:23:14;;;;;;;7.03;4.65;;;;;;;24.68;52.63;99654.78;4926371;29;20027;-96
2022/06/27 08:25:43;;;;;;;7.32;4.80;;;;;;;24.54;52.44;99646.97;4907983;29;20032;-93
2022/06/27 08:28:37;;;;;;;9.43;5.80;;;;;;;24.66;52.80;99644.13;4968726;28;20077;-96
2022/06/27 08:32:12;;;;;;;;;;;;;;;;;;;;;
2022/06/27 08:34:33;;;;;;;5.75;5.00;;;;;;;24.74;51.91;99651.41;5019629;28;20141;-93
2022/06/27 08:37:18;;;;;;;6.28;4.57;;;;;;;24.76;51.30;99659.31;4949566;28;20053;-96
2022/06/27 08:39:44;;;;;;;5.32;4.35;;;;;;;25.00;50.94;99650.03;4919287;29;20036;-95
2022/06/27 08:42:10;;;;;;;9.20;5.35;;;;;;;24.91;50.80;99652.19;4935735;29;20036;-94
2022/06/27 08:44:39;;;;;;;7.35;3.97;;;;;;;24.98;50.49;99647.63;4906097;29;20028;-95
2022/06/27 08:47:07;;;;;;;7.57;4.35;;;;;;;25.23;50.53;99658.44;4919679;29;20145;-94
2022/06/27 08:49:37;;;;;;;6.00;4.57;;;;;;;25.33;50.75;99637.78;4921338;29;20063;-93
2022/06/27 08:52:09;;;;;;;7.18;3.90;;;;;;;25.42;49.16;99635.59;4903930;29;20417;-95
2022/06/27 08:54:37;;;;;;;3.70;3.20;;;;;;;25.29;47.44;99639.66;4936017;29;20482;-95
2022/06/27 08:57:10;;;;;;;4.38;3.22;;;;;;;25.34;47.90;99631.13;4920273;29;20490;-96
2022/06/27 08:59:36;;;;;;;8.50;3.60;;;;;;;25.32;48.37;99622.44;4923821;29;20031;-95
2022/06/27 09:02:41;;;;;;;4.78;3.58;;;;;;;25.50;47.37;99656.66;4923928;29;20579;-93
2022/06/27 09:05:26;;;;;;;7.07;3.80;;;;;;;25.46;48.13;99643.97;4911887;29;20074;-92
2022/06/27 09:08:04;;;;;;;3.42;3.10;;;;;;;25.68;46.88;99656.25;4930319;29;20062;-93
2022/06/27 09:10:46;;;;;;;7.45;5.18;;;;;;;25.85;46.89;99633.72;4939282;29;20031;-93
2022/06/27 09:13:13;;;;;;;3.90;3.10;;;;;;;25.95;45.91;99654.44;4936344;29;20024;-92
2022/06/27 09:15:39;;;;;;;5.70;3.03;;;;;;;25.94;46.08;99653.63;4956511;28;20042;-94
2022/06/27 09:18:06;;;;;;;6.35;3.20;;;;;;;25.90;44.50;99627.94;4954035;29;20059;-93
2022/06/27 09:20:50;;;;;;;5.50;3.10;;;;;;;25.91;45.57;99646.06;4936384;29;20513;-92
2022/06/27 09:23:41;;;;;;;4.38;2.90;;;;;;;26.08;43.96;99647.56;4967807;28;20425;-93
2022/06/27 09:26:34;;;;;;;4.97;4.47;;;;;;;26.30;43.44;99643.22;4980464;28;20106;-90
2022/06/27 09:29:08;;;;;;;6.07;3.33;;;;;;;26.10;44.46;99623.16;4992941;28;20062;-93
2022/06/27 09:31:39;;;;;;;3.47;3.00;;;;;;;26.17;44.50;99650.91;4996082;28;20037;-93
2022/06/27 09:34:19;;;;;;;5.18;3.47;;;;;;;26.21;45.49;99629.69;4978677;28;20022;-93
2022/06/27 09:36:59;;;;;;;5.85;3.50;;;;;;;26.32;44.53;99632.63;4981686;28;20179;-95
2022/06/27 09:39:30;;;;;;;5.18;3.17;;;;;;;26.29;44.25;99619.53;4984351;28;20511;-92
2022/06/27 09:42:10;;;;;;;4.43;3.45;;;;;;;26.22;43.46;99616.66;4980803;28;20026;-92
2022/06/27 09:45:04;;;;;;;7.32;3.10;;;;;;;26.32;44.62;99626.31;4982415;28;20022;-95
2022/06/27 09:47:34;;;;;;;4.68;3.05;;;;;;;26.27;44.61;99585.19;4998751;28;20030;-92
2022/06/27 09:50:03;;;;;;;3.20;2.85;;;;;;;26.35;43.98;99607.03;4965782;28;20435;-93
2022/06/27 09:52:38;;;;;;;6.03;3.92;;;;;;;26.52;44.16;99611.25;5000118;28;20026;-95
2022/06/27 09:58:12;;;;;;;5.07;2.92;;;;;;;26.52;42.15;99585.59;5050132;27;1774388;-92
2022/06/27 10:00:43;;;;;;;4.25;2.90;;;;;;;26.48;43.48;99591.06;5057573;28;20040;-92
2022/06/27 10:03:09;;;;;;;3.90;3.08;;;;;;;26.58;42.39;99581.38;5058584;28;20024;-91
2022/06/27 10:05:34;;;;;;;5.32;2.88;;;;;;;26.68;42.94;99589.03;5074067;28;20020;-94
2022/06/27 10:08:08;;;;;;;12.60;3.53;;;;;;;26.75;43.33;99591.09;5053028;28;20021;-94
2022/06/27 10:11:02;;;;;;;3.53;3.05;;;;;;;26.94;42.05;99604.81;5054254;28;20405;-93
2022/06/27 10:13:37;;;;;;;4.40;3.00;;;;;;;26.79;43.31;99591.94;5093265;28;20020;-95
2022/06/27 10:16:08;;;;;;;4.18;2.95;;;;;;;26.72;42.32;99575.28;5062327;28;20024;-94
2022/06/27 10:19:00;;;;;;;8.27;5.00;;;;;;;26.95;42.38;99592.56;5075373;28;20032;-95
2022/06/27 10:21:46;;;;;;;4.60;3.63;;;;;;;26.95;41.94;99595.34;5117682;23;20053;-94
2022/06/27 10:24:24;;;;;;;5.32;3.15;;;;;;;27.09;41.73;99594.75;4996885;28;20041;-94
2022/06/27 10:26:59;;;;;;;4.53;2.60;;;;;;;27.19;40.56;99585.00;5013138;28;20040;-93
2022/06/27 10:29:29;;;;;;;5.93;3.38;;;;;;;27.35;41.68;99579.28;4998828;28;20048;-94
2022/06/27 10:31:57;;;;;;;8.45;2.95;;;;;;;27.30;40.93;99565.81;5016871;28;20021;-95
2022/06/27 10:34:53;;;;;;;;;;;;;;;;;;;;;
2022/06/27 10:37:27;;;;;;;4.07;2.90;;;;;;;27.78;39.78;99582.53;5036640;28;20480;-94
2022/06/27 10:40:22;;;;;;;4.05;2.95;;;;;;;27.90;40.36;99584.28;5017771;28;20026;-93
2022/06/27 10:42:55;;;;;;;5.68;2.78;;;;;;;27.75;39.42;99575.78;5018269;28;20064;-95
2022/06/27 10:45:36;;;;;;;3.03;2.55;;;;;;;27.59;40.66;99566.91;5002676;28;20044;-95
2022/06/27 10:48:12;;;;;;;;;;;;;;;;;;;;;
2022/06/27 10:51:00;;;;;;;3.08;2.38;;;;;;;27.61;39.96;99567.34;5003936;28;20032;-94
2022/06/27 10:53:30;;;;;;;14.88;4.22;;;;;;;27.71;40.25;99557.56;4994498;28;20438;-93
2022/06/27 10:56:34;;;;;;;5.05;2.58;;;;;;;27.84;39.61;99560.84;5015891;28;20026;-93
2022/06/27 10:59:19;;;;;;;5.45;2.80;;;;;;;27.80;39.43;99533.91;5034235;28;20034;-93
2022/06/27 11:01:51;;;;;;;7.07;3.08;;;;;;;27.99;39.52;99563.41;5008587;28;20097;-91
2022/06/27 11:04:36;;;;;;;4.30;2.90;;;;;;;27.84;38.40;99547.81;5016812;28;20036;-95
2022/06/27 11:07:09;;;;;;;3.58;2.90;;;;;;;27.90;39.52;99548.28;4998803;28;20161;-96
2022/06/27 11:09:45;;;;;;;5.63;3.40;;;;;;;28.11;37.82;99548.47;4971379;28;20026;-94
2022/06/27 11:12:18;;;;;;;4.60;2.90;;;;;;;28.16;38.22;99544.53;4970217;28;20030;-95
2022/06/27 11:14:53;;;;;;;4.78;2.92;;;;;;;28.13;38.44;99545.31;4987250;28;20018;-93
2022/06/27 11:17:38;;;;;;;3.63;2.63;;;;;;;28.15;37.53;99534.66;4986182;28;20022;-92
2022/06/27 11:20:11;;;;;;;6.65;2.65;;;;;;;28.30;37.77;99541.88;4985507;28;20033;-93
2022/06/27 11:22:42;;;;;;;5.55;2.70;;;;;;;28.42;38.22;99529.72;4997807;28;20055;-93
2022/06/27 11:25:16;;;;;;;4.03;2.65;;;;;;;28.41;37.25;99528.13;4987252;28;20071;-95
2022/06/27 11:33:32;;;;;;;5.68;2.70;;;;;;;28.55;36.88;99528.22;4985658;28;20511;-92
2022/06/27 11:35:58;;;;;;;5.38;2.78;;;;;;;28.56;36.94;99527.06;4984684;28;20030;-94
2022/06/27 11:38:42;;;;;;;6.15;2.90;;;;;;;28.66;35.93;99517.22;4985748;28;20089;-94
2022/06/27 11:41:27;;;;;;;6.55;4.13;;;;;;;28.59;37.96;99531.81;4985393;28;20027;-95
2022/06/27 11:44:31;;;;;;;7.28;3.10;;;;;;;28.39;38.20;99519.41;4972433;28;20026;-92
2022/06/27 11:50:32;;;;;;;4.53;2.80;;;;;;;28.32;37.78;99495.22;4949560;29;20650;-94
2022/06/27 11:53:01;;;;;;;6.05;2.85;;;;;;;28.46;37.42;99518.66;4985558;28;20080;-94
2022/06/27 11:55:31;;;;;;;5.68;3.25;;;;;;;28.62;38.02;99530.28;4970990;28;20026;-95
2022/06/27 11:58:08;;;;;;;10.27;3.75;;;;;;;28.54;36.82;99514.78;4981391;28;20033;-92
2022/06/27 12:00:34;;;;;;;3.08;2.40;;;;;;;28.55;37.48;99503.31;4962393;28;20422;-94
2022/06/27 12:03:05;;;;;;;4.30;2.90;;;;;;;28.71;38.20;99514.09;4965808;28;20074;-95
2022/06/27 12:05:42;;;;;;;8.17;2.63;;;;;;;28.69;37.90;99508.13;4981687;28;20034;-94
2022/06/27 12:08:14;;;;;;;4.63;2.45;;;;;;;28.74;36.95;99509.72;4978434;28;20125;-94
2022/06/27 12:13:40;;;;;;;4.72;2.85;;;;;;;29.02;36.17;99498.78;4995537;28;20033;-93
2022/06/27 12:16:08;;;;;;;6.72;4.63;;;;;;;29.13;35.16;99498.84;4987430;28;20089;-92
2022/06/27 12:18:46;;;;;;;7.05;3.63;;;;;;;29.07;35.70;99500.38;4974714;28;20022;-94